createdAt,value
2022-09-06T00:01:47.335Z,84.20
2022-09-06T00:04:15.529Z,84.30
2022-09-06T00:06:42.333Z,84.40
2022-09-06T00:09:08.949Z,84.80
2022-09-06T00:11:35.615Z,84.60
2022-09-06T00:14:02.234Z,84.70
2022-09-06T00:16:30.577Z,85.00
2022-09-06T00:18:57.519Z,84.90
2022-09-06T00:21:30.156Z,84.90
2022-09-06T00:23:56.831Z,85.40
2022-09-06T00:26:23.867Z,85.40
2022-09-06T00:28:50.637Z,85.30
2022-09-06T00:31:27.660Z,85.60
2022-09-06T00:33:54.669Z,85.90
2022-09-06T00:36:22.185Z,85.70
2022-09-06T00:38:49.137Z,85.90
2022-09-06T00:41:16.538Z,86.00
2022-09-06T00:43:43.523Z,86.20
2022-09-06T00:46:16.081Z,86.10
2022-09-06T00:48:45.130Z,86.10
2022-09-06T00:51:14.711Z,86.20
2022-09-06T00:53:41.571Z,86.20
2022-09-06T00:56:08.834Z,86.50
2022-09-06T00:58:36.216Z,86.90
2022-09-06T01:01:02.966Z,87.10
2022-09-06T01:03:29.650Z,87.00
2022-09-06T01:06:14.874Z,87.10
2022-09-06T01:08:50.343Z,87.30
2022-09-06T01:11:35.597Z,87.30
2022-09-06T01:14:16.849Z,87.30
2022-09-06T01:17:10.547Z,87.50
2022-09-06T01:19:45.938Z,87.90
2022-09-06T01:22:36.733Z,87.70
2022-09-06T01:25:15.062Z,88.40
2022-09-06T01:28:14.451Z,88.40
2022-09-06T01:30:47.916Z,88.70
2022-09-06T01:33:22.277Z,89.00
2022-09-06T01:35:57.671Z,89.00
2022-09-06T01:38:24.490Z,88.90
2022-09-06T01:40:51.246Z,89.30
2022-09-06T01:43:39.624Z,89.20
2022-09-06T01:46:15.320Z,89.20
2022-09-06T01:49:04.112Z,89.80
2022-09-06T01:51:39.937Z,90.00
2022-09-06T01:54:15.438Z,89.70
2022-09-06T01:56:56.776Z,89.90
2022-09-06T01:59:44.784Z,89.90
2022-09-06T02:02:35.540Z,89.70
2022-09-06T02:05:08.509Z,89.70
2022-09-06T02:07:38.153Z,90.00
2022-09-06T02:10:21.458Z,90.10
2022-09-06T02:12:51.879Z,89.90
2022-09-06T02:15:25.637Z,90.10
2022-09-06T02:18:11.199Z,90.10
2022-09-06T02:20:42.052Z,90.20
2022-09-06T02:23:10.020Z,90.50
2022-09-06T02:25:43.774Z,90.20
2022-09-06T02:28:10.816Z,90.20
2022-09-06T02:30:44.536Z,90.20
2022-09-06T02:33:18.613Z,90.40
2022-09-06T02:35:51.438Z,90.40
2022-09-06T02:38:20.796Z,90.50
2022-09-06T02:40:49.956Z,90.40
2022-09-06T02:43:16.624Z,90.40
2022-09-06T02:45:43.415Z,90.60
2022-09-06T02:48:10.067Z,90.60
2022-09-06T02:50:37.059Z,90.60
2022-09-06T02:53:09.942Z,90.60
2022-09-06T02:55:37.459Z,90.70
2022-09-06T02:58:06.167Z,90.80
2022-09-06T03:00:33.224Z,90.70
2022-09-06T03:03:00.003Z,90.90
2022-09-06T03:05:27.929Z,90.90
2022-09-06T03:07:54.981Z,90.70
2022-09-06T03:10:22.525Z,90.70
2022-09-06T03:12:49.190Z,90.70
2022-09-06T03:15:16.786Z,90.70
2022-09-06T03:17:43.474Z,90.70
2022-09-06T03:20:11.537Z,90.70
2022-09-06T03:22:42.065Z,90.70
2022-09-06T03:25:10.451Z,90.70
2022-09-06T03:27:37.562Z,90.80
2022-09-06T03:30:05.890Z,90.90
2022-09-06T03:32:32.578Z,91.00
2022-09-06T03:34:59.659Z,90.90
2022-09-06T03:37:26.469Z,91.00
2022-09-06T03:39:53.236Z,90.90
2022-09-06T03:42:19.938Z,91.00
2022-09-06T03:44:46.609Z,91.00
2022-09-06T03:47:17.559Z,91.10
2022-09-06T03:49:46.679Z,91.10
2022-09-06T03:52:14.842Z,91.10
2022-09-06T03:54:41.774Z,91.20
2022-09-06T03:57:08.474Z,91.20
2022-09-06T03:59:35.470Z,91.20
2022-09-06T04:02:02.181Z,91.40
2022-09-06T04:04:28.822Z,91.30
2022-09-06T04:06:55.478Z,91.40
2022-09-06T04:09:22.098Z,91.30
2022-09-06T04:11:48.767Z,91.20
2022-09-06T04:14:15.417Z,91.30
2022-09-06T04:16:42.183Z,91.40
2022-09-06T04:19:08.883Z,91.40
2022-09-06T04:21:35.811Z,91.40
2022-09-06T04:24:02.838Z,91.60
2022-09-06T04:26:29.529Z,91.50
2022-09-06T04:28:56.158Z,91.50
2022-09-06T04:31:22.897Z,91.60
2022-09-06T04:33:49.638Z,91.70
2022-09-06T04:36:16.265Z,91.70
2022-09-06T04:38:44.760Z,91.70
2022-09-06T04:41:14.248Z,91.80
2022-09-06T04:43:41.701Z,91.80
2022-09-06T04:46:14.462Z,91.80
2022-09-06T04:48:41.126Z,92.30
2022-09-06T04:51:07.721Z,92.40
2022-09-06T04:53:34.433Z,92.30
2022-09-06T04:56:01.118Z,92.40
2022-09-06T04:58:27.940Z,92.50
2022-09-06T05:00:54.828Z,92.60
2022-09-06T05:03:21.521Z,92.80
2022-09-06T05:05:48.138Z,93.30
2022-09-06T05:08:15.197Z,93.40
2022-09-06T05:10:41.813Z,93.70
2022-09-06T05:13:08.462Z,94.10
2022-09-06T05:15:35.120Z,94.50
2022-09-06T05:18:03.888Z,94.70
2022-09-06T05:20:31.545Z,94.70
2022-09-06T05:22:58.213Z,95.10
2022-09-06T05:25:24.846Z,95.50
2022-09-06T05:27:51.513Z,95.50
2022-09-06T05:30:18.351Z,96.20
2022-09-06T05:32:45.362Z,96.30
2022-09-06T05:35:12.095Z,96.70
2022-09-06T05:37:38.706Z,96.90
2022-09-06T05:40:05.826Z,97.20
2022-09-06T05:42:32.453Z,98.00
2022-09-06T05:44:59.074Z,98.60
2022-09-06T05:47:25.661Z,98.90
2022-09-06T05:49:53.485Z,99.60
2022-09-06T05:52:20.119Z,99.90
2022-09-06T05:54:46.782Z,99.90
2022-09-06T05:57:13.405Z,99.90
2022-09-06T05:59:40.037Z,99.90
2022-09-06T06:02:07.719Z,99.90
2022-09-06T06:04:34.937Z,99.90
2022-09-06T06:07:01.852Z,99.90
2022-09-06T06:09:28.467Z,99.90
2022-09-06T06:11:55.084Z,99.90
2022-09-06T06:14:21.721Z,99.90
2022-09-06T06:16:48.410Z,99.90
2022-09-06T06:19:15.337Z,99.90
2022-09-06T06:21:43.590Z,99.90
2022-09-06T06:24:10.383Z,99.90
2022-09-06T06:26:37.776Z,99.90
2022-09-06T06:29:08.015Z,99.90
2022-09-06T06:31:35.511Z,99.90
2022-09-06T06:34:05.046Z,99.90
2022-09-06T06:36:34.038Z,99.90
2022-09-06T06:39:02.149Z,99.90
2022-09-06T06:41:31.773Z,99.90
2022-09-06T06:44:03.376Z,99.90
2022-09-06T06:46:32.551Z,99.90
2022-09-06T06:48:59.633Z,99.90
2022-09-06T06:51:28.974Z,99.90
2022-09-06T06:53:56.895Z,99.90
2022-09-06T06:56:25.269Z,99.90
2022-09-06T06:58:53.823Z,99.90
2022-09-06T07:01:22.492Z,99.90
2022-09-06T07:03:49.781Z,99.90
2022-09-06T07:06:18.006Z,99.90
2022-09-06T07:08:45.441Z,99.90
2022-09-06T07:11:13.965Z,99.90
2022-09-06T07:13:40.898Z,99.90
2022-09-06T07:16:20.123Z,99.90
2022-09-06T07:18:47.734Z,99.90
2022-09-06T07:26:31.779Z,99.90
2022-09-06T07:29:05.401Z,99.90
2022-09-06T07:34:20.434Z,99.90
2022-09-06T07:36:47.189Z,99.90
2022-09-06T07:39:14.597Z,99.90
2022-09-06T07:41:42.441Z,99.90
2022-09-06T07:44:09.079Z,99.90
2022-09-06T07:46:36.129Z,99.90
2022-09-06T07:49:05.340Z,99.90
2022-09-06T07:51:32.421Z,99.90
2022-09-06T07:54:19.322Z,99.90
2022-09-06T07:56:45.754Z,99.90
2022-09-06T07:59:12.593Z,99.90
2022-09-06T08:01:40.281Z,99.90
2022-09-06T08:04:12.772Z,99.90
2022-09-06T08:09:29.535Z,99.90
2022-09-06T08:11:56.217Z,99.90
2022-09-06T08:14:22.839Z,99.90
2022-09-06T08:16:52.801Z,99.90
2022-09-06T08:19:19.453Z,99.90
2022-09-06T08:21:46.146Z,99.90
2022-09-06T08:24:12.821Z,99.90
2022-09-06T08:26:40.646Z,99.90
2022-09-06T08:29:08.729Z,97.80
2022-09-06T08:31:37.875Z,96.10
2022-09-06T08:34:05.010Z,94.40
2022-09-06T08:36:32.594Z,94.20
2022-09-06T08:39:01.123Z,93.70
2022-09-06T08:41:46.495Z,93.30
2022-09-06T08:47:07.947Z,91.50
2022-09-06T08:49:39.287Z,91.50
2022-09-06T08:52:27.671Z,90.90
2022-09-06T08:54:59.014Z,91.40
2022-09-06T08:57:40.373Z,91.00
2022-09-06T09:00:11.603Z,90.90
2022-09-06T09:02:55.157Z,90.60
2022-09-06T09:05:30.213Z,90.10
2022-09-06T09:08:03.000Z,90.50
2022-09-06T09:10:33.315Z,90.80
2022-09-06T09:13:02.477Z,90.70
2022-09-06T09:15:29.347Z,90.60
2022-09-06T09:17:56.208Z,90.80
2022-09-06T09:20:23.086Z,90.40
2022-09-06T09:22:49.799Z,90.00
2022-09-06T09:25:22.415Z,90.10
2022-09-06T09:27:57.431Z,89.80
2022-09-06T09:33:33.506Z,89.00
2022-09-06T09:36:02.794Z,90.20
2022-09-06T09:38:32.794Z,90.50
2022-09-06T09:41:07.678Z,89.50
2022-09-06T09:43:42.296Z,88.80
2022-09-06T09:46:13.761Z,90.00
2022-09-06T09:48:44.860Z,90.00
2022-09-06T09:51:27.645Z,89.00
2022-09-06T09:54:00.155Z,87.70
2022-09-06T09:56:52.749Z,87.20
2022-09-06T09:59:40.124Z,86.20
2022-09-06T10:02:18.641Z,86.70
2022-09-06T10:04:50.309Z,86.20
2022-09-06T10:07:23.146Z,86.90
2022-09-06T10:10:14.282Z,85.30
2022-09-06T10:12:42.537Z,85.40
2022-09-06T10:15:11.834Z,85.10
2022-09-06T10:17:58.709Z,85.10
2022-09-06T10:20:56.646Z,82.60
2022-09-06T10:26:46.753Z,81.20
2022-09-06T10:29:14.404Z,80.50
2022-09-06T10:31:49.114Z,80.80
2022-09-06T10:34:40.877Z,80.80
2022-09-06T10:37:25.566Z,81.60
2022-09-06T10:40:00.805Z,82.10
2022-09-06T10:42:42.929Z,81.20
2022-09-06T10:45:17.299Z,81.80
2022-09-06T10:48:14.451Z,83.00
2022-09-06T10:50:56.703Z,82.60
2022-09-06T10:53:43.467Z,81.70
2022-09-06T10:56:16.690Z,82.20
2022-09-06T11:02:00.255Z,83.10
2022-09-06T11:04:32.813Z,81.80
2022-09-06T11:07:04.246Z,81.20
2022-09-06T11:09:33.780Z,80.60
2022-09-06T11:12:32.698Z,80.90
2022-09-06T11:15:03.566Z,82.10
2022-09-06T11:17:54.513Z,81.20
2022-09-06T11:20:57.734Z,80.60
2022-09-06T11:23:48.153Z,80.30
2022-09-06T11:26:36.351Z,79.10
2022-09-06T11:29:23.913Z,80.80
2022-09-06T11:34:54.343Z,80.50
2022-09-06T11:37:28.174Z,79.20
2022-09-06T11:40:27.186Z,79.00
2022-09-06T11:42:54.930Z,78.80
2022-09-06T11:45:40.114Z,79.10
2022-09-06T11:48:33.958Z,78.90
2022-09-06T11:51:12.788Z,79.30
2022-09-06T11:53:48.419Z,78.50
2022-09-06T11:56:36.745Z,78.40
2022-09-06T11:59:24.334Z,78.30
2022-09-06T12:02:01.901Z,79.20
2022-09-06T12:05:00.605Z,78.70
2022-09-06T12:07:29.326Z,78.20
2022-09-06T12:09:56.097Z,78.70
2022-09-06T12:12:46.340Z,78.50
2022-09-06T12:15:44.918Z,79.20
2022-09-06T12:18:43.418Z,79.30
2022-09-06T12:21:32.911Z,79.20
2022-09-06T12:24:00.589Z,79.10
2022-09-06T12:26:51.873Z,79.30
2022-09-06T12:29:29.010Z,78.80
2022-09-06T12:31:57.861Z,79.20
2022-09-06T12:34:28.330Z,79.50
2022-09-06T12:37:04.422Z,79.80
2022-09-06T12:39:31.644Z,79.30
2022-09-06T12:42:10.704Z,79.50
2022-09-06T12:44:42.906Z,79.70
2022-09-06T12:47:42.636Z,79.10
2022-09-06T12:50:18.301Z,79.20
2022-09-06T12:52:48.038Z,78.90
2022-09-06T12:55:26.163Z,78.10
2022-09-06T12:57:58.507Z,78.10
2022-09-06T13:00:32.691Z,78.60
2022-09-06T13:03:29.396Z,78.00
2022-09-06T13:05:58.086Z,78.00
2022-09-06T13:08:40.329Z,78.00
2022-09-06T13:11:13.465Z,78.10
2022-09-06T13:13:52.031Z,78.00
2022-09-06T13:16:21.416Z,77.90
2022-09-06T13:18:48.224Z,77.60
2022-09-06T13:21:31.096Z,77.70
2022-09-06T13:23:59.075Z,77.40
2022-09-06T13:26:36.865Z,77.90
2022-09-06T13:29:11.006Z,77.30
2022-09-06T13:31:38.057Z,77.50
2022-09-06T13:34:04.802Z,78.00
2022-09-06T13:36:32.622Z,77.30
2022-09-06T13:39:03.452Z,77.00
2022-09-06T13:41:36.116Z,76.50
2022-09-06T13:44:04.498Z,76.60
2022-09-06T13:46:33.246Z,75.60
2022-09-06T13:49:00.361Z,75.70
2022-09-06T13:51:26.999Z,76.20
2022-09-06T13:54:14.092Z,76.80
2022-09-06T13:56:42.524Z,76.60
2022-09-06T13:59:12.530Z,74.80
2022-09-06T14:01:44.820Z,75.40
2022-09-06T14:04:14.358Z,75.20
2022-09-06T14:06:41.514Z,76.20
2022-09-06T14:09:09.329Z,75.00
2022-09-06T14:11:36.534Z,75.10
2022-09-06T14:14:03.288Z,75.60
2022-09-06T14:16:30.383Z,76.00
2022-09-06T14:18:57.457Z,76.30
2022-09-06T14:21:24.128Z,76.30
2022-09-06T14:23:52.120Z,76.80
2022-09-06T14:26:23.057Z,76.50
2022-09-06T14:28:50.310Z,76.80
2022-09-06T14:31:22.908Z,77.10
2022-09-06T14:33:49.610Z,76.60
2022-09-06T14:36:18.465Z,76.20
2022-09-06T14:38:46.165Z,76.60
2022-09-06T14:41:14.605Z,76.40
2022-09-06T14:43:48.017Z,76.10
2022-09-06T14:46:18.173Z,75.80
2022-09-06T14:48:45.954Z,75.50
2022-09-06T14:51:23.967Z,75.40
2022-09-06T14:53:53.591Z,75.30
2022-09-06T14:56:21.143Z,73.50
2022-09-06T14:58:47.949Z,73.90
2022-09-06T15:01:16.803Z,74.00
2022-09-06T15:03:48.697Z,74.40
2022-09-06T15:06:16.418Z,73.10
2022-09-06T15:08:43.645Z,73.40
2022-09-06T15:11:12.165Z,73.80
2022-09-06T15:13:42.731Z,74.50
2022-09-06T15:16:10.798Z,73.90
2022-09-06T15:18:37.561Z,74.30
2022-09-06T15:21:12.134Z,74.00
2022-09-06T15:23:39.673Z,73.60
2022-09-06T15:26:08.310Z,74.40
2022-09-06T15:28:39.092Z,74.60
2022-09-06T15:31:07.407Z,74.90
2022-09-06T15:33:36.386Z,74.70
2022-09-06T15:36:06.362Z,75.10
2022-09-06T15:38:38.600Z,75.30
2022-09-06T15:41:14.304Z,75.40
2022-09-06T15:43:45.174Z,75.00
2022-09-06T15:46:11.854Z,75.40
2022-09-06T15:48:46.943Z,76.00
2022-09-06T15:51:16.186Z,76.10
2022-09-06T15:53:43.851Z,75.60
2022-09-06T15:56:14.544Z,75.60
2022-09-06T15:58:41.311Z,76.30
2022-09-06T16:01:13.006Z,76.40
2022-09-06T16:03:45.609Z,77.20
2022-09-06T16:08:51.370Z,76.20
2022-09-06T16:11:19.010Z,76.80
2022-09-06T16:13:46.093Z,76.90
2022-09-06T16:16:15.562Z,76.90
2022-09-06T16:18:44.342Z,77.50
2022-09-06T16:21:17.909Z,77.00
2022-09-06T16:23:49.814Z,77.00
2022-09-06T16:26:21.346Z,77.00
2022-09-06T16:28:50.526Z,76.70
2022-09-06T16:31:18.432Z,76.90
2022-09-06T16:33:45.752Z,76.70
2022-09-06T16:36:13.848Z,76.70
2022-09-06T16:38:41.416Z,76.40
2022-09-06T16:41:20.727Z,76.20
2022-09-06T16:43:52.521Z,76.20
2022-09-06T16:46:21.338Z,75.40
2022-09-06T16:48:56.339Z,75.50
2022-09-06T16:51:24.551Z,75.90
2022-09-06T16:53:52.289Z,76.00
2022-09-06T16:56:25.273Z,76.00
2022-09-06T16:58:54.834Z,75.90
2022-09-06T17:01:22.733Z,76.40
2022-09-06T17:03:49.998Z,76.50
2022-09-06T17:06:17.436Z,77.00
2022-09-06T17:08:44.957Z,76.70
2022-09-06T17:11:14.739Z,76.90
2022-09-06T17:13:42.350Z,78.00
2022-09-06T17:16:27.688Z,79.20
2022-09-06T17:18:54.546Z,79.60
2022-09-06T17:21:23.640Z,80.10
2022-09-06T17:23:52.082Z,81.00
2022-09-06T17:26:21.067Z,81.30
2022-09-06T17:28:48.865Z,81.40
2022-09-06T17:31:16.864Z,82.60
2022-09-06T17:33:47.101Z,82.70
2022-09-06T17:36:17.674Z,83.30
2022-09-06T17:38:48.824Z,83.50
2022-09-06T17:41:24.688Z,84.20
2022-09-06T17:43:55.644Z,84.50
2022-09-06T17:46:28.548Z,85.30
2022-09-06T17:48:56.755Z,85.70
2022-09-06T17:51:25.006Z,85.80
2022-09-06T17:53:52.673Z,85.70
2022-09-06T17:56:20.274Z,85.70
2022-09-06T17:58:55.110Z,86.10
2022-09-06T18:01:23.712Z,86.70
2022-09-06T18:03:50.819Z,86.90
2022-09-06T18:06:20.101Z,86.60
2022-09-06T18:08:47.892Z,87.10
2022-09-06T18:11:18.721Z,86.60
2022-09-06T18:13:47.118Z,86.20
2022-09-06T18:16:14.382Z,86.60
2022-09-06T18:18:41.525Z,87.20
2022-09-06T18:21:08.257Z,86.60
2022-09-06T18:23:35.761Z,87.20
2022-09-06T18:26:05.962Z,87.40
2022-09-06T18:28:34.891Z,87.40
2022-09-06T18:31:05.741Z,87.60
2022-09-06T18:33:32.498Z,87.70
2022-09-06T18:35:59.368Z,87.30
2022-09-06T18:38:26.949Z,86.80
2022-09-06T18:40:59.557Z,86.60
2022-09-06T18:43:31.850Z,86.30
2022-09-06T18:46:03.607Z,86.30
2022-09-06T18:48:33.830Z,86.40
2022-09-06T18:51:05.698Z,86.60
2022-09-06T18:53:33.243Z,85.90
2022-09-06T18:56:00.415Z,86.10
2022-09-06T18:58:27.508Z,86.10
2022-09-06T19:01:02.672Z,86.30
2022-09-06T19:03:30.977Z,86.20
2022-09-06T19:06:03.111Z,86.40
2022-09-06T19:08:29.858Z,87.10
2022-09-06T19:11:05.422Z,87.00
2022-09-06T19:13:33.424Z,87.20
2022-09-06T19:16:00.939Z,87.90
2022-09-06T19:18:28.774Z,87.20
2022-09-06T19:21:02.128Z,87.50
2022-09-06T19:23:29.917Z,87.80
2022-09-06T19:26:02.678Z,87.40
2022-09-06T19:28:30.139Z,88.30
2022-09-06T19:30:57.702Z,87.50
2022-09-06T19:33:25.697Z,87.50
2022-09-06T19:36:10.570Z,87.60
2022-09-06T19:38:59.561Z,88.00
2022-09-06T19:41:27.440Z,88.30
2022-09-06T19:43:55.901Z,88.40
2022-09-06T19:46:23.301Z,88.50
2022-09-06T19:48:52.182Z,88.60
2022-09-06T19:51:19.786Z,88.70
2022-09-06T19:53:54.758Z,88.90
2022-09-06T19:56:22.551Z,89.30
2022-09-06T19:58:55.195Z,90.00
2022-09-06T20:01:22.600Z,89.40
2022-09-06T20:03:49.555Z,88.90
2022-09-06T20:06:16.201Z,89.20
2022-09-06T20:08:43.073Z,89.50
2022-09-06T20:11:12.529Z,89.90
2022-09-06T20:13:39.907Z,90.00
2022-09-06T20:16:08.770Z,90.00
2022-09-06T20:18:36.025Z,90.20
2022-09-06T20:21:03.334Z,90.40
2022-09-06T20:23:31.351Z,90.30
2022-09-06T20:26:10.551Z,90.80
2022-09-06T20:28:37.541Z,90.80
2022-09-06T20:31:10.753Z,90.90
2022-09-06T20:33:37.802Z,91.00
2022-09-06T20:36:06.905Z,90.80
2022-09-06T20:38:36.126Z,90.90
2022-09-06T20:41:11.540Z,90.70
2022-09-06T20:43:39.297Z,90.70
2022-09-06T20:46:17.823Z,90.60
2022-09-06T20:48:45.669Z,90.60
2022-09-06T20:51:23.519Z,90.60
2022-09-06T20:53:55.201Z,90.90
2022-09-06T20:56:27.975Z,90.90
2022-09-06T20:58:57.117Z,90.90
2022-09-06T21:01:25.800Z,91.00
2022-09-06T21:03:55.255Z,91.00
2022-09-06T21:06:24.085Z,91.10
2022-09-06T21:08:51.274Z,91.10
2022-09-06T21:11:18.594Z,91.00
2022-09-06T21:13:49.833Z,91.00
2022-09-06T21:16:20.505Z,91.10
2022-09-06T21:18:51.616Z,91.10
2022-09-06T21:21:18.305Z,91.20
2022-09-06T21:23:45.029Z,91.30
2022-09-06T21:26:12.964Z,91.50
2022-09-06T21:28:40.610Z,91.40
2022-09-06T21:31:13.629Z,91.50
2022-09-06T21:33:55.111Z,91.70
2022-09-06T21:36:30.344Z,91.70
2022-09-06T21:39:03.591Z,91.70
2022-09-06T21:41:31.053Z,91.80
2022-09-06T21:44:02.217Z,91.90
2022-09-06T21:46:34.241Z,91.90
2022-09-06T21:49:04.164Z,92.00
2022-09-06T21:51:31.738Z,92.00
2022-09-06T21:53:58.676Z,92.00
2022-09-06T21:56:26.034Z,92.00
2022-09-06T21:58:57.567Z,92.10
2022-09-06T22:01:29.028Z,92.20
2022-09-06T22:03:55.755Z,92.20
2022-09-06T22:06:25.305Z,92.10
2022-09-06T22:08:53.898Z,92.10
2022-09-06T22:11:29.487Z,92.10
2022-09-06T22:14:01.225Z,92.10
2022-09-06T22:16:28.565Z,92.10
2022-09-06T22:18:55.639Z,92.10
2022-09-06T22:21:22.930Z,92.10
2022-09-06T22:23:58.264Z,92.10
2022-09-06T22:26:26.692Z,92.20
2022-09-06T22:28:59.006Z,92.20
2022-09-06T22:31:27.468Z,92.50
2022-09-06T22:33:54.605Z,92.30
2022-09-06T22:36:21.806Z,92.50
2022-09-06T22:38:48.436Z,92.40
2022-09-06T22:41:15.214Z,92.30
2022-09-06T22:43:41.844Z,92.30
2022-09-06T22:46:10.524Z,92.20
2022-09-06T22:48:37.659Z,92.20
2022-09-06T22:51:08.500Z,92.30
2022-09-06T22:53:35.682Z,92.20
2022-09-06T22:56:02.853Z,92.70
2022-09-06T22:58:29.869Z,92.70
2022-09-06T23:00:57.102Z,92.70
2022-09-06T23:03:24.008Z,92.60
2022-09-06T23:05:50.682Z,92.70
2022-09-06T23:08:17.412Z,93.10
2022-09-06T23:10:44.616Z,93.40
2022-09-06T23:13:11.491Z,95.10
2022-09-06T23:15:40.721Z,97.10
2022-09-06T23:18:07.844Z,98.70
2022-09-06T23:20:37.099Z,99.60
2022-09-06T23:23:04.788Z,99.90
2022-09-06T23:25:31.805Z,99.90
2022-09-06T23:27:59.838Z,99.90
2022-09-06T23:30:26.590Z,99.90
2022-09-06T23:32:53.233Z,99.90
2022-09-06T23:35:19.833Z,99.90
2022-09-06T23:37:50.426Z,99.90
2022-09-06T23:40:18.085Z,99.90
2022-09-06T23:42:45.082Z,99.90
2022-09-06T23:45:11.739Z,99.90
2022-09-06T23:47:38.361Z,99.90
2022-09-06T23:50:05.397Z,99.90
2022-09-06T23:52:32.033Z,99.90
2022-09-06T23:54:58.641Z,99.90
2022-09-06T23:57:25.275Z,99.90
2022-09-06T23:59:51.888Z,99.90
